sensor_id;sensor_type;location;lat;lon;timestamp;P1;durP1;ratioP1;P2;durP2;ratioP2
69026;SDS011;56080;47.594;19.116;2023-08-24T00:13:39;9.30;;;6.80;;
69026;SDS011;56080;47.594;19.116;2023-08-24T00:23:41;9.90;;;6.30;;
69026;SDS011;56080;47.594;19.116;2023-08-24T00:33:43;11.10;;;6.40;;
69026;SDS011;56080;47.594;19.116;2023-08-24T00:43:46;9.40;;;6.50;;
69026;SDS011;56080;47.594;19.116;2023-08-24T00:53:47;10.70;;;6.40;;
69026;SDS011;56080;47.594;19.116;2023-08-24T01:03:49;9.40;;;6.30;;
69026;SDS011;56080;47.594;19.116;2023-08-24T01:24:30;8.40;;;5.90;;
69026;SDS011;56080;47.594;19.116;2023-08-24T01:33:56;10.00;;;7.90;;
69026;SDS011;56080;47.594;19.116;2023-08-24T01:44:01;8.60;;;7.10;;
69026;SDS011;56080;47.594;19.116;2023-08-24T01:54:00;9.90;;;7.10;;
69026;SDS011;56080;47.594;19.116;2023-08-24T02:04:02;12.60;;;6.90;;
69026;SDS011;56080;47.594;19.116;2023-08-24T02:14:04;8.30;;;5.70;;
69026;SDS011;56080;47.594;19.116;2023-08-24T02:24:06;9.90;;;7.80;;
69026;SDS011;56080;47.594;19.116;2023-08-24T02:34:08;10.00;;;7.50;;
69026;SDS011;56080;47.594;19.116;2023-08-24T02:44:10;9.50;;;7.50;;
69026;SDS011;56080;47.594;19.116;2023-08-24T02:54:12;9.90;;;6.40;;
69026;SDS011;56080;47.594;19.116;2023-08-24T03:04:14;9.50;;;7.00;;
69026;SDS011;56080;47.594;19.116;2023-08-24T03:14:16;10.50;;;6.70;;
69026;SDS011;56080;47.594;19.116;2023-08-24T03:24:18;11.00;;;7.00;;
69026;SDS011;56080;47.594;19.116;2023-08-24T03:34:19;9.20;;;7.00;;
69026;SDS011;56080;47.594;19.116;2023-08-24T03:44:21;9.70;;;7.10;;
69026;SDS011;56080;47.594;19.116;2023-08-24T03:54:24;9.00;;;7.00;;
69026;SDS011;56080;47.594;19.116;2023-08-24T04:04:25;11.10;;;7.60;;
69026;SDS011;56080;47.594;19.116;2023-08-24T04:14:27;9.30;;;6.90;;
69026;SDS011;56080;47.594;19.116;2023-08-24T04:24:30;11.10;;;7.10;;
69026;SDS011;56080;47.594;19.116;2023-08-24T04:34:31;10.80;;;8.40;;
69026;SDS011;56080;47.594;19.116;2023-08-24T04:44:34;11.60;;;8.10;;
69026;SDS011;56080;47.594;19.116;2023-08-24T04:54:35;10.70;;;7.20;;
69026;SDS011;56080;47.594;19.116;2023-08-24T05:04:37;11.30;;;8.70;;
69026;SDS011;56080;47.594;19.116;2023-08-24T05:14:39;11.00;;;8.30;;
69026;SDS011;56080;47.594;19.116;2023-08-24T05:24:40;11.70;;;8.20;;
69026;SDS011;56080;47.594;19.116;2023-08-24T05:34:42;10.90;;;8.60;;
69026;SDS011;56080;47.594;19.116;2023-08-24T05:44:45;9.90;;;8.00;;
69026;SDS011;56080;47.594;19.116;2023-08-24T05:54:47;9.70;;;5.40;;
69026;SDS011;56080;47.594;19.116;2023-08-24T06:04:50;8.00;;;5.00;;
69026;SDS011;56080;47.594;19.116;2023-08-24T06:14:53;8.90;;;5.20;;
69026;SDS011;56080;47.594;19.116;2023-08-24T06:24:55;7.70;;;5.10;;
69026;SDS011;56080;47.594;19.116;2023-08-24T06:34:58;9.30;;;5.70;;
69026;SDS011;56080;47.594;19.116;2023-08-24T06:45:00;11.40;;;5.60;;
69026;SDS011;56080;47.594;19.116;2023-08-24T06:55:06;8.70;;;5.70;;
69026;SDS011;56080;47.594;19.116;2023-08-24T07:05:07;8.50;;;5.50;;
69026;SDS011;56080;47.594;19.116;2023-08-24T07:15:09;7.70;;;5.00;;
69026;SDS011;56080;47.594;19.116;2023-08-24T07:25:15;8.20;;;5.50;;
69026;SDS011;56080;47.594;19.116;2023-08-24T07:35:13;10.00;;;5.40;;
69026;SDS011;56080;47.594;19.116;2023-08-24T07:45:16;8.60;;;5.40;;
69026;SDS011;56080;47.594;19.116;2023-08-24T07:55:18;9.90;;;7.90;;
69026;SDS011;56080;47.594;19.116;2023-08-24T08:05:21;9.70;;;7.10;;
69026;SDS011;56080;47.594;19.116;2023-08-24T08:15:23;9.00;;;7.50;;
69026;SDS011;56080;47.594;19.116;2023-08-24T08:25:28;8.80;;;7.30;;
69026;SDS011;56080;47.594;19.116;2023-08-24T08:35:28;8.30;;;6.90;;
69026;SDS011;56080;47.594;19.116;2023-08-24T08:45:34;8.10;;;6.50;;
69026;SDS011;56080;47.594;19.116;2023-08-24T08:55:36;7.60;;;5.50;;
69026;SDS011;56080;47.594;19.116;2023-08-24T09:05:37;8.00;;;6.00;;
69026;SDS011;56080;47.594;19.116;2023-08-24T09:15:44;7.20;;;5.80;;
69026;SDS011;56080;47.594;19.116;2023-08-24T09:35:52;7.40;;;5.90;;
69026;SDS011;56080;47.594;19.116;2023-08-24T10:06:05;7.80;;;3.90;;
69026;SDS011;56080;47.594;19.116;2023-08-24T10:15:58;5.50;;;3.40;;
69026;SDS011;56080;47.594;19.116;2023-08-24T10:26:02;7.40;;;3.90;;
69026;SDS011;56080;47.594;19.116;2023-08-24T10:36:04;6.20;;;3.60;;
69026;SDS011;56080;47.594;19.116;2023-08-24T10:46:12;5.80;;;3.30;;
69026;SDS011;56080;47.594;19.116;2023-08-24T10:56:23;6.10;;;3.20;;
69026;SDS011;56080;47.594;19.116;2023-08-24T11:06:27;6.40;;;3.60;;
69026;SDS011;56080;47.594;19.116;2023-08-24T11:16:48;5.90;;;3.50;;
69026;SDS011;56080;47.594;19.116;2023-08-24T11:36:22;5.80;;;3.50;;
69026;SDS011;56080;47.594;19.116;2023-08-24T11:46:25;6.50;;;3.70;;
69026;SDS011;56080;47.594;19.116;2023-08-24T11:56:30;6.10;;;3.80;;
69026;SDS011;56080;47.594;19.116;2023-08-24T12:06:30;5.60;;;3.70;;
69026;SDS011;56080;47.594;19.116;2023-08-24T12:16:34;6.00;;;3.50;;
69026;SDS011;56080;47.594;19.116;2023-08-24T12:36:40;5.30;;;3.20;;
69026;SDS011;56080;47.594;19.116;2023-08-24T12:46:43;6.30;;;3.30;;
69026;SDS011;56080;47.594;19.116;2023-08-24T12:56:45;5.20;;;3.00;;
69026;SDS011;56080;47.594;19.116;2023-08-24T13:06:48;5.50;;;3.00;;
69026;SDS011;56080;47.594;19.116;2023-08-24T13:16:51;5.40;;;3.20;;
69026;SDS011;56080;47.594;19.116;2023-08-24T13:26:55;7.40;;;3.10;;
69026;SDS011;56080;47.594;19.116;2023-08-24T13:36:58;5.40;;;3.10;;
69026;SDS011;56080;47.594;19.116;2023-08-24T13:47:01;8.10;;;4.50;;
69026;SDS011;56080;47.594;19.116;2023-08-24T13:57:04;6.20;;;4.30;;
69026;SDS011;56080;47.594;19.116;2023-08-24T14:07:06;6.10;;;4.30;;
69026;SDS011;56080;47.594;19.116;2023-08-24T14:17:09;7.40;;;3.50;;
69026;SDS011;56080;47.594;19.116;2023-08-24T14:27:12;6.50;;;4.30;;
69026;SDS011;56080;47.594;19.116;2023-08-24T14:37:15;6.10;;;4.30;;
69026;SDS011;56080;47.594;19.116;2023-08-24T14:57:20;5.70;;;4.40;;
69026;SDS011;56080;47.594;19.116;2023-08-24T15:07:22;5.50;;;3.20;;
69026;SDS011;56080;47.594;19.116;2023-08-24T15:17:25;6.10;;;3.30;;
69026;SDS011;56080;47.594;19.116;2023-08-24T15:27:28;5.60;;;3.10;;
69026;SDS011;56080;47.594;19.116;2023-08-24T15:37:31;6.90;;;4.40;;
69026;SDS011;56080;47.594;19.116;2023-08-24T15:47:33;6.50;;;4.70;;
69026;SDS011;56080;47.594;19.116;2023-08-24T15:57:36;6.80;;;4.80;;
69026;SDS011;56080;47.594;19.116;2023-08-24T16:07:38;6.20;;;4.70;;
69026;SDS011;56080;47.594;19.116;2023-08-24T16:17:41;6.40;;;4.70;;
69026;SDS011;56080;47.594;19.116;2023-08-24T16:27:44;6.80;;;4.80;;
69026;SDS011;56080;47.594;19.116;2023-08-24T16:37:45;6.70;;;5.10;;
69026;SDS011;56080;47.594;19.116;2023-08-24T16:47:48;6.90;;;4.60;;
69026;SDS011;56080;47.594;19.116;2023-08-24T17:08:10;6.50;;;4.90;;
69026;SDS011;56080;47.594;19.116;2023-08-24T17:17:56;6.40;;;4.70;;
69026;SDS011;56080;47.594;19.116;2023-08-24T17:27:57;6.90;;;5.00;;
69026;SDS011;56080;47.594;19.116;2023-08-24T17:38:00;7.40;;;5.00;;
69026;SDS011;56080;47.594;19.116;2023-08-24T17:48:02;7.10;;;4.80;;
69026;SDS011;56080;47.594;19.116;2023-08-24T17:58:05;6.80;;;3.50;;
69026;SDS011;56080;47.594;19.116;2023-08-24T18:08:07;7.50;;;5.00;;
69026;SDS011;56080;47.594;19.116;2023-08-24T18:18:09;7.30;;;3.80;;
69026;SDS011;56080;47.594;19.116;2023-08-24T18:28:12;6.50;;;4.20;;
69026;SDS011;56080;47.594;19.116;2023-08-24T18:38:15;7.10;;;4.30;;
69026;SDS011;56080;47.594;19.116;2023-08-24T18:48:16;8.80;;;4.80;;
69026;SDS011;56080;47.594;19.116;2023-08-24T18:58:18;9.70;;;4.80;;
69026;SDS011;56080;47.594;19.116;2023-08-24T19:08:21;8.60;;;5.10;;
69026;SDS011;56080;47.594;19.116;2023-08-24T19:18:23;7.80;;;6.00;;
69026;SDS011;56080;47.594;19.116;2023-08-24T19:28:27;7.50;;;6.00;;
69026;SDS011;56080;47.594;19.116;2023-08-24T19:38:27;8.70;;;6.10;;
69026;SDS011;56080;47.594;19.116;2023-08-24T19:48:29;8.10;;;6.00;;
69026;SDS011;56080;47.594;19.116;2023-08-24T19:58:31;9.10;;;6.40;;
69026;SDS011;56080;47.594;19.116;2023-08-24T20:08:34;8.50;;;6.10;;
69026;SDS011;56080;47.594;19.116;2023-08-24T20:18:35;8.80;;;6.30;;
69026;SDS011;56080;47.594;19.116;2023-08-24T20:28:42;9.60;;;6.70;;
69026;SDS011;56080;47.594;19.116;2023-08-24T20:38:39;8.10;;;6.30;;
69026;SDS011;56080;47.594;19.116;2023-08-24T20:48:41;8.60;;;5.80;;
69026;SDS011;56080;47.594;19.116;2023-08-24T20:58:42;9.10;;;5.80;;
69026;SDS011;56080;47.594;19.116;2023-08-24T21:08:44;8.80;;;5.90;;
69026;SDS011;56080;47.594;19.116;2023-08-24T21:18:47;8.40;;;6.50;;
69026;SDS011;56080;47.594;19.116;2023-08-24T21:38:51;7.80;;;5.80;;
69026;SDS011;56080;47.594;19.116;2023-08-24T21:48:52;7.70;;;5.20;;
69026;SDS011;56080;47.594;19.116;2023-08-24T21:58:55;7.80;;;5.10;;
69026;SDS011;56080;47.594;19.116;2023-08-24T22:08:57;8.40;;;5.50;;
69026;SDS011;56080;47.594;19.116;2023-08-24T22:18:59;10.30;;;5.60;;
69026;SDS011;56080;47.594;19.116;2023-08-24T22:29:01;9.50;;;5.90;;
69026;SDS011;56080;47.594;19.116;2023-08-24T22:39:03;8.40;;;5.30;;
69026;SDS011;56080;47.594;19.116;2023-08-24T22:49:05;8.70;;;5.80;;
69026;SDS011;56080;47.594;19.116;2023-08-24T22:59:07;10.10;;;7.10;;
69026;SDS011;56080;47.594;19.116;2023-08-24T23:09:10;8.50;;;6.00;;
69026;SDS011;56080;47.594;19.116;2023-08-24T23:19:11;8.20;;;5.70;;
69026;SDS011;56080;47.594;19.116;2023-08-24T23:29:13;11.00;;;6.90;;
69026;SDS011;56080;47.594;19.116;2023-08-24T23:39:15;10.70;;;7.00;;
69026;SDS011;56080;47.594;19.116;2023-08-24T23:49:16;9.10;;;6.60;;
69026;SDS011;56080;47.594;19.116;2023-08-24T23:59:18;9.60;;;6.50;;
